Time;durP1;ratioP1;P1;durP2;ratioP2;P2;SDS_P1;SDS_P2;PMS_P1;PMS_P2;Temp;Humidity;BMP_temperature;BMP_pressure;BME280_temperature;BME280_humidity;BME280_pressure;Samples;Min_cycle;Max_cycle;Signal;HPM_P1;HPM_P2
2022/01/09 00:00:34;;;;;;;12.63;7.60;;;;;;;;;;5032294;28;20052;-69
2022/01/09 00:03:00;;;;;;;12.15;8.13;;;;;;;;;;5032104;28;20407;-68
2022/01/09 00:05:26;;;;;;;12.30;7.88;;;;;;;;;;5032323;28;20057;-69
2022/01/09 00:07:53;;;;;;;13.48;7.82;;;;;;;;;;5031953;28;20050;-69
2022/01/09 00:10:19;;;;;;;11.02;8.45;;;;;;;;;;5032465;28;20057;-69
2022/01/09 00:12:46;;;;;;;11.80;8.20;;;;;;;;;;5032056;28;20384;-69
2022/01/09 00:15:12;;;;;;;14.45;8.82;;;;;;;;;;5032401;28;20395;-69
2022/01/09 00:17:38;;;;;;;12.63;8.43;;;;;;;;;;5032624;28;20474;-69
2022/01/09 00:20:05;;;;;;;10.68;8.52;;;;;;;;;;5032494;28;20053;-68
2022/01/09 00:25:04;;;;;;;11.88;8.38;;;;;;;;;;5033714;28;20060;-69
2022/01/09 00:27:30;;;;;;;12.95;8.32;;;;;;;;;;5041698;28;20049;-69
2022/01/09 00:29:56;;;;;;;21.13;9.50;;;;;;;;;;5032585;28;20408;-69
2022/01/09 00:32:22;;;;;;;12.65;8.45;;;;;;;;;;5031941;28;20061;-69
2022/01/09 00:34:48;;;;;;;16.98;9.18;;;;;;;;;;5032142;28;20062;-69
2022/01/09 00:37:14;;;;;;;16.92;8.80;;;;;;;;;;5032128;28;20053;-70
2022/01/09 00:39:40;;;;;;;15.15;8.93;;;;;;;;;;5031717;28;20099;-68
2022/01/09 00:42:06;;;;;;;13.65;8.30;;;;;;;;;;5033699;28;20088;-69
2022/01/09 00:44:33;;;;;;;11.50;8.63;;;;;;;;;;5032350;28;20515;-68
2022/01/09 00:47:00;;;;;;;13.05;7.82;;;;;;;;;;5033217;28;20411;-68
2022/01/09 00:49:26;;;;;;;11.52;8.13;;;;;;;;;;5032195;28;20049;-68
2022/01/09 00:51:53;;;;;;;12.30;8.95;;;;;;;;;;5015412;28;20080;-68
2022/01/09 00:54:18;;;;;;;9.70;7.80;;;;;;;;;;5031609;28;20049;-69
2022/01/09 00:56:44;;;;;;;11.82;8.07;;;;;;;;;;5033227;28;20419;-68
2022/01/09 00:59:10;;;;;;;10.25;8.40;;;;;;;;;;5031665;28;20106;-68
2022/01/09 01:01:36;;;;;;;12.45;8.30;;;;;;;;;;5033253;28;20101;-68
2022/01/09 01:04:03;;;;;;;12.07;9.05;;;;;;;;;;5015678;28;20096;-69
2022/01/09 01:06:29;;;;;;;12.40;8.07;;;;;;;;;;5031681;28;20046;-69
2022/01/09 01:08:56;;;;;;;11.32;8.20;;;;;;;;;;5033590;28;20048;-68
2022/01/09 01:11:22;;;;;;;11.32;8.50;;;;;;;;;;5031777;28;20049;-69
2022/01/09 01:13:48;;;;;;;12.75;8.77;;;;;;;;;;5015246;28;20061;-69
2022/01/09 01:16:14;;;;;;;16.10;9.23;;;;;;;;;;5031866;28;20128;-70
2022/01/09 01:18:43;;;;;;;12.40;8.88;;;;;;;;;;5032957;28;20049;-69
2022/01/09 01:21:09;;;;;;;13.35;9.07;;;;;;;;;;5031688;28;20057;-70
2022/01/09 01:23:35;;;;;;;12.05;8.73;;;;;;;;;;5032404;28;20042;-69
2022/01/09 01:26:02;;;;;;;18.80;10.27;;;;;;;;;;5033061;28;20460;-69
2022/01/09 01:28:28;;;;;;;13.15;9.30;;;;;;;;;;5031723;28;20061;-69
2022/01/09 01:30:54;;;;;;;13.90;8.88;;;;;;;;;;5032935;28;20108;-69
2022/01/09 01:33:20;;;;;;;12.95;9.63;;;;;;;;;;5034070;28;20093;-69
2022/01/09 01:35:46;;;;;;;12.20;9.07;;;;;;;;;;5036396;28;20128;-69
2022/01/09 01:38:12;;;;;;;16.95;9.43;;;;;;;;;;5036257;28;20042;-69
2022/01/09 01:40:38;;;;;;;13.18;9.60;;;;;;;;;;5036763;28;20368;-69
2022/01/09 01:43:04;;;;;;;18.80;9.45;;;;;;;;;;5036355;28;20049;-68
2022/01/09 01:45:30;;;;;;;15.13;10.43;;;;;;;;;;5036474;28;20045;-69
2022/01/09 01:48:04;;;;;;;16.10;10.65;;;;;;;;;;5036097;28;20055;-69
2022/01/09 01:50:35;;;;;;;18.85;11.63;;;;;;;;;;5034993;28;20121;-68
2022/01/09 01:53:01;;;;;;;20.38;10.82;;;;;;;;;;5034818;28;20049;-68
2022/01/09 01:55:28;;;;;;;19.05;10.38;;;;;;;;;;5018491;28;20045;-68
2022/01/09 01:57:54;;;;;;;15.70;10.63;;;;;;;;;;5018198;28;20053;-69
2022/01/09 02:00:21;;;;;;;16.92;10.68;;;;;;;;;;5034745;28;20152;-68
2022/01/09 02:02:47;;;;;;;18.73;10.90;;;;;;;;;;5034771;28;20046;-69
2022/01/09 02:05:13;;;;;;;16.67;10.82;;;;;;;;;;5018605;28;20057;-68
2022/01/09 02:07:39;;;;;;;17.40;11.43;;;;;;;;;;5036114;28;20053;-68
2022/01/09 02:10:08;;;;;;;19.83;12.98;;;;;;;;;;5034777;28;20049;-68
2022/01/09 02:12:35;;;;;;;;;;;;;;;;;;5036271;28;20045;-68
2022/01/09 02:15:01;;;;;;;19.80;12.75;;;;;;;;;;5034617;28;19920;-68
2022/01/09 02:17:27;;;;;;;21.98;12.73;;;;;;;;;;5034524;28;20045;-68
2022/01/09 02:19:56;;;;;;;18.75;13.43;;;;;;;;;;5035776;28;20459;-68
2022/01/09 02:22:24;;;;;;;21.55;14.25;;;;;;;;;;5034360;28;20061;-69
2022/01/09 02:24:51;;;;;;;27.40;15.20;;;;;;;;;;5035446;28;20055;-68
2022/01/09 02:27:17;;;;;;;23.77;14.90;;;;;;;;;;5034152;28;20045;-69
2022/01/09 02:29:47;;;;;;;23.00;14.95;;;;;;;;;;5035273;28;20049;-69
2022/01/09 02:32:13;;;;;;;25.60;17.15;;;;;;;;;;5035188;28;20057;-69
2022/01/09 02:34:39;;;;;;;30.33;17.45;;;;;;;;;;5035482;28;20104;-69
2022/01/09 02:37:05;;;;;;;29.77;18.48;;;;;;;;;;5035775;28;20037;-69
2022/01/09 02:39:31;;;;;;;33.67;18.75;;;;;;;;;;5034472;28;20068;-69
2022/01/09 02:41:57;;;;;;;32.45;18.48;;;;;;;;;;5033722;28;20667;-69
2022/01/09 02:44:23;;;;;;;33.47;19.45;;;;;;;;;;5033146;28;20380;-69
2022/01/09 02:49:15;;;;;;;34.47;19.40;;;;;;;;;;5033871;28;20133;-69
2022/01/09 02:51:44;;;;;;;51.10;22.67;;;;;;;;;;5035295;28;20471;-68
2022/01/09 02:57:14;;;;;;;37.92;22.05;;;;;;;;;;4938796;28;20154;-69
2022/01/09 02:59:40;;;;;;;42.22;22.73;;;;;;;;;;4938882;29;20126;-69
2022/01/09 03:02:06;;;;;;;41.30;22.27;;;;;;;;;;4938451;29;20159;-69
2022/01/09 03:04:32;;;;;;;42.25;22.05;;;;;;;;;;4938524;29;20053;-69
2022/01/09 03:06:58;;;;;;;41.25;21.90;;;;;;;;;;4954818;29;20066;-69
2022/01/09 03:09:24;;;;;;;41.47;21.88;;;;;;;;;;4954201;28;20067;-69
2022/01/09 03:11:50;;;;;;;43.00;22.45;;;;;;;;;;4938659;29;20474;-69
2022/01/09 03:14:16;;;;;;;44.50;22.75;;;;;;;;;;4938548;29;20059;-68
2022/01/09 03:16:42;;;;;;;44.75;22.90;;;;;;;;;;4938649;29;20051;-68
2022/01/09 03:19:08;;;;;;;44.22;21.83;;;;;;;;;;4938425;29;20521;-68
2022/01/09 03:21:34;;;;;;;42.63;21.63;;;;;;;;;;4938346;29;20509;-69
2022/01/09 03:24:00;;;;;;;42.25;21.70;;;;;;;;;;4938132;29;20114;-69
2022/01/09 03:26:26;;;;;;;38.58;19.35;;;;;;;;;;4938355;29;20051;-69
2022/01/09 03:28:52;;;;;;;35.92;18.75;;;;;;;;;;5020557;28;20060;-69
2022/01/09 03:31:18;;;;;;;51.92;20.10;;;;;;;;;;5034262;28;20444;-69
2022/01/09 03:33:44;;;;;;;32.65;16.00;;;;;;;;;;5033133;28;20436;-69
2022/01/09 03:36:10;;;;;;;97.28;25.02;;;;;;;;;;5032846;28;20053;-69
2022/01/09 03:38:36;;;;;;;30.85;14.63;;;;;;;;;;5016396;28;20046;-69
2022/01/09 03:41:02;;;;;;;29.70;13.95;;;;;;;;;;5034166;28;20392;-69
2022/01/09 03:43:28;;;;;;;32.30;13.68;;;;;;;;;;5032618;28;20041;-68
2022/01/09 03:45:54;;;;;;;29.17;13.02;;;;;;;;;;5033081;28;20056;-69
2022/01/09 03:48:20;;;;;;;28.95;13.38;;;;;;;;;;5032752;28;20477;-69
2022/01/09 03:50:51;;;;;;;27.33;12.05;;;;;;;;;;5016098;28;20048;-68
2022/01/09 03:53:17;;;;;;;27.92;12.48;;;;;;;;;;5034108;28;20045;-69
2022/01/09 03:55:42;;;;;;;28.25;12.13;;;;;;;;;;5015951;28;20056;-69
2022/01/09 03:58:09;;;;;;;32.58;12.57;;;;;;;;;;5032593;28;20126;-69
2022/01/09 04:00:35;;;;;;;33.70;13.30;;;;;;;;;;5034123;28;20125;-68
2022/01/09 04:03:00;;;;;;;38.42;13.48;;;;;;;;;;5016263;28;20145;-69
2022/01/09 04:05:27;;;;;;;34.00;12.95;;;;;;;;;;5034254;28;20053;-69
2022/01/09 04:07:53;;;;;;;30.52;12.95;;;;;;;;;;5033786;28;20049;-69
2022/01/09 04:10:20;;;;;;;33.67;13.32;;;;;;;;;;5033726;28;20064;-69
2022/01/09 04:12:51;;;;;;;30.55;12.88;;;;;;;;;;5015871;28;20050;-69
2022/01/09 04:15:18;;;;;;;31.88;13.05;;;;;;;;;;5032683;28;20049;-69
2022/01/09 04:17:55;;;;;;;33.78;12.40;;;;;;;;;;5033572;28;20132;-69
2022/01/09 04:20:25;;;;;;;28.63;12.48;;;;;;;;;;5032596;28;20056;-69
2022/01/09 04:22:52;;;;;;;34.65;12.00;;;;;;;;;;5032171;28;20437;-69
2022/01/09 04:25:18;;;;;;;31.50;11.55;;;;;;;;;;5033692;28;20049;-69
2022/01/09 04:27:44;;;;;;;32.40;10.98;;;;;;;;;;5015694;28;20503;-69
2022/01/09 04:30:11;;;;;;;31.17;8.68;;;;;;;;;;5015588;28;20053;-69
2022/01/09 04:32:37;;;;;;;42.80;9.07;;;;;;;;;;5032390;28;20129;-69
2022/01/09 04:35:03;;;;;;;44.25;7.20;;;;;;;;;;5032335;28;20053;-69
2022/01/09 04:37:33;;;;;;;39.40;5.80;;;;;;;;;;5033833;28;20383;-69
2022/01/09 04:39:59;;;;;;;38.33;5.45;;;;;;;;;;5032359;28;20053;-69
2022/01/09 04:42:32;;;;;;;44.58;5.63;;;;;;;;;;5031908;28;20046;-69
2022/01/09 04:44:58;;;;;;;54.25;6.32;;;;;;;;;;5015759;28;20571;-69
2022/01/09 04:47:25;;;;;;;46.75;5.38;;;;;;;;;;5031961;28;20057;-69
2022/01/09 04:49:51;;;;;;;55.45;6.38;;;;;;;;;;5033547;28;20565;-69
2022/01/09 04:52:21;;;;;;;53.67;6.05;;;;;;;;;;5032192;28;20061;-69
2022/01/09 04:54:47;;;;;;;38.92;5.00;;;;;;;;;;5032425;28;20128;-69
2022/01/09 04:57:13;;;;;;;36.45;5.55;;;;;;;;;;5032341;28;20049;-69
2022/01/09 04:59:39;;;;;;;41.55;4.43;;;;;;;;;;5032172;28;20041;-69
2022/01/09 05:02:05;;;;;;;37.88;4.68;;;;;;;;;;5032915;28;20044;-69
2022/01/09 05:04:31;;;;;;;43.90;5.15;;;;;;;;;;5031891;28;20484;-69
2022/01/09 05:06:57;;;;;;;48.85;5.57;;;;;;;;;;5032341;28;20053;-69
2022/01/09 05:09:23;;;;;;;43.00;4.60;;;;;;;;;;5035031;28;20044;-70
2022/01/09 05:11:49;;;;;;;35.67;4.97;;;;;;;;;;5035818;28;20050;-69
2022/01/09 05:14:15;;;;;;;45.08;4.95;;;;;;;;;;5035751;28;20045;-69
2022/01/09 05:16:44;;;;;;;31.10;4.00;;;;;;;;;;5035944;28;20057;-70
2022/01/09 05:19:17;;;;;;;46.10;5.88;;;;;;;;;;5035824;28;20107;-69
2022/01/09 05:21:43;;;;;;;33.92;5.30;;;;;;;;;;5037132;28;20136;-69
2022/01/09 05:24:09;;;;;;;42.17;4.80;;;;;;;;;;5036966;28;20045;-70
2022/01/09 05:26:35;;;;;;;43.13;5.20;;;;;;;;;;5036887;28;20095;-69
2022/01/09 05:29:01;;;;;;;41.00;4.22;;;;;;;;;;5036783;28;20427;-70
2022/01/09 05:31:27;;;;;;;32.08;4.28;;;;;;;;;;5037030;28;20044;-69
2022/01/09 05:33:53;;;;;;;37.85;4.05;;;;;;;;;;5018438;28;20049;-69
2022/01/09 05:36:19;;;;;;;31.48;3.35;;;;;;;;;;5037030;28;20100;-69
2022/01/09 05:38:45;;;;;;;27.17;4.10;;;;;;;;;;5019061;28;20557;-69
2022/01/09 05:41:11;;;;;;;29.33;3.53;;;;;;;;;;5018907;28;20050;-69
2022/01/09 05:43:39;;;;;;;27.33;3.40;;;;;;;;;;5035292;28;20080;-69
2022/01/09 05:46:05;;;;;;;35.78;3.65;;;;;;;;;;5035566;28;20492;-69
2022/01/09 05:48:31;;;;;;;27.70;4.53;;;;;;;;;;5035281;28;20053;-69
2022/01/09 05:50:57;;;;;;;26.77;3.60;;;;;;;;;;5035227;28;20514;-69
2022/01/09 05:53:23;;;;;;;26.80;2.95;;;;;;;;;;5034976;28;20068;-69
2022/01/09 05:55:49;;;;;;;23.42;3.35;;;;;;;;;;5035151;28;20049;-68
2022/01/09 05:58:15;;;;;;;31.42;3.50;;;;;;;;;;5035180;28;20125;-69
2022/01/09 06:00:41;;;;;;;43.95;5.07;;;;;;;;;;5035668;28;20041;-68
2022/01/09 06:03:07;;;;;;;27.58;3.83;;;;;;;;;;5018922;28;20056;-68
2022/01/09 06:05:33;;;;;;;29.10;3.50;;;;;;;;;;5035368;28;20088;-69
2022/01/09 06:07:59;;;;;;;29.80;3.40;;;;;;;;;;5034892;28;20045;-68
2022/01/09 06:10:25;;;;;;;50.00;7.72;;;;;;;;;;5035890;28;20050;-68
2022/01/09 06:12:51;;;;;;;24.23;3.55;;;;;;;;;;5036087;28;20060;-69
2022/01/09 06:15:17;;;;;;;22.75;3.45;;;;;;;;;;5034970;28;20045;-68
2022/01/09 06:17:44;;;;;;;31.73;4.07;;;;;;;;;;5035808;28;20050;-69
2022/01/09 06:20:11;;;;;;;31.88;4.32;;;;;;;;;;5033910;28;20506;-68
2022/01/09 06:22:37;;;;;;;46.40;5.65;;;;;;;;;;5035540;28;20041;-68
2022/01/09 06:25:04;;;;;;;27.02;2.92;;;;;;;;;;5035473;28;20431;-69
2022/01/09 06:27:30;;;;;;;22.83;3.08;;;;;;;;;;5034329;28;20392;-68
2022/01/09 06:29:56;;;;;;;25.65;3.40;;;;;;;;;;5017949;28;20054;-68
2022/01/09 06:32:22;;;;;;;26.85;4.25;;;;;;;;;;5017580;28;20064;-69
2022/01/09 06:34:48;;;;;;;29.35;3.40;;;;;;;;;;5034502;28;20057;-68
2022/01/09 06:37:14;;;;;;;22.90;3.13;;;;;;;;;;5034439;28;20103;-68
2022/01/09 06:39:41;;;;;;;26.00;3.58;;;;;;;;;;5017887;28;20096;-68
2022/01/09 06:42:07;;;;;;;34.67;3.38;;;;;;;;;;5034717;28;20064;-68
2022/01/09 06:44:33;;;;;;;25.10;3.47;;;;;;;;;;5034275;28;20045;-69
2022/01/09 06:46:59;;;;;;;21.83;2.38;;;;;;;;;;5017384;28;20045;-67
2022/01/09 06:49:25;;;;;;;19.45;3.28;;;;;;;;;;5017958;28;20045;-68
2022/01/09 06:51:51;;;;;;;20.80;2.95;;;;;;;;;;5035262;28;20053;-70
2022/01/09 06:54:17;;;;;;;25.08;2.80;;;;;;;;;;5033584;28;20045;-67
2022/01/09 06:56:44;;;;;;;21.48;2.80;;;;;;;;;;5035074;28;20041;-67
2022/01/09 06:59:10;;;;;;;22.85;3.25;;;;;;;;;;5034128;28;20052;-68
2022/01/09 07:01:36;;;;;;;19.20;3.05;;;;;;;;;;5033578;28;20054;-68
2022/01/09 07:04:02;;;;;;;17.60;2.97;;;;;;;;;;5017723;28;20067;-68
2022/01/09 07:06:28;;;;;;;31.77;3.95;;;;;;;;;;5033933;28;20052;-68
2022/01/09 07:08:54;;;;;;;24.60;2.95;;;;;;;;;;5035397;28;20089;-68
2022/01/09 07:11:20;;;;;;;17.38;2.67;;;;;;;;;;5034008;28;20084;-68
2022/01/09 07:13:46;;;;;;;18.67;2.60;;;;;;;;;;5033959;28;20361;-68
2022/01/09 07:16:12;;;;;;;17.42;2.60;;;;;;;;;;5035165;28;20099;-68
2022/01/09 07:18:38;;;;;;;22.08;2.78;;;;;;;;;;5033525;28;20404;-68
2022/01/09 07:21:03;;;;;;;26.38;3.40;;;;;;;;;;5034640;28;20079;-68
2022/01/09 07:23:30;;;;;;;30.38;3.80;;;;;;;;;;5034615;28;20041;-67
2022/01/09 07:25:56;;;;;;;24.60;3.05;;;;;;;;;;5034367;28;20086;-68
2022/01/09 07:28:22;;;;;;;24.08;3.20;;;;;;;;;;5034890;28;20124;-68
2022/01/09 07:30:48;;;;;;;17.98;2.75;;;;;;;;;;5032484;28;20060;-68
2022/01/09 07:33:14;;;;;;;15.77;2.35;;;;;;;;;;5033181;28;20124;-68
2022/01/09 07:35:40;;;;;;;29.25;4.60;;;;;;;;;;5034574;28;20056;-68
2022/01/09 07:38:06;;;;;;;21.58;4.05;;;;;;;;;;5032990;28;20408;-68
2022/01/09 07:40:32;;;;;;;16.20;2.90;;;;;;;;;;5033166;28;20075;-68
2022/01/09 07:42:58;;;;;;;67.15;9.20;;;;;;;;;;5032897;28;20133;-68
2022/01/09 07:45:27;;;;;;;22.48;3.05;;;;;;;;;;5034587;28;20046;-69
2022/01/09 07:47:53;;;;;;;16.13;2.15;;;;;;;;;;5034578;28;20049;-68
2022/01/09 07:50:19;;;;;;;16.88;2.88;;;;;;;;;;5033033;28;20045;-68
2022/01/09 07:52:46;;;;;;;44.17;5.07;;;;;;;;;;5034262;28;20052;-68
2022/01/09 07:55:12;;;;;;;21.45;3.17;;;;;;;;;;5034411;28;20084;-68
2022/01/09 07:57:38;;;;;;;23.20;4.05;;;;;;;;;;5033748;28;20057;-68
2022/01/09 08:00:05;;;;;;;26.20;3.33;;;;;;;;;;5032530;28;20539;-68
2022/01/09 08:02:31;;;;;;;16.30;2.72;;;;;;;;;;5032449;28;20084;-68
2022/01/09 08:04:57;;;;;;;14.18;2.55;;;;;;;;;;5032569;28;20068;-68
2022/01/09 08:07:23;;;;;;;15.40;2.10;;;;;;;;;;5033629;28;20038;-68
2022/01/09 08:09:49;;;;;;;15.15;2.38;;;;;;;;;;5032540;28;20524;-68
2022/01/09 08:12:16;;;;;;;20.35;3.17;;;;;;;;;;5034485;28;20045;-68
2022/01/09 08:14:42;;;;;;;9.23;1.60;;;;;;;;;;5033138;28;20049;-68
2022/01/09 08:17:08;;;;;;;10.85;1.30;;;;;;;;;;5034116;28;20106;-69
2022/01/09 08:19:35;;;;;;;16.48;2.55;;;;;;;;;;5032639;28;20080;-70
2022/01/09 08:22:02;;;;;;;14.40;1.92;;;;;;;;;;5032296;28;20053;-69
2022/01/09 08:24:28;;;;;;;10.20;1.77;;;;;;;;;;5032448;28;20104;-69
2022/01/09 08:26:54;;;;;;;12.30;2.10;;;;;;;;;;5033503;28;20041;-69
2022/01/09 08:29:20;;;;;;;12.27;1.73;;;;;;;;;;5033538;28;20037;-69
2022/01/09 08:31:46;;;;;;;12.38;2.03;;;;;;;;;;5032125;28;20041;-69
2022/01/09 08:34:12;;;;;;;9.20;1.80;;;;;;;;;;5038159;28;20049;-69
2022/01/09 08:36:38;;;;;;;18.25;2.97;;;;;;;;;;5039241;28;20049;-69
2022/01/09 08:39:05;;;;;;;12.63;2.50;;;;;;;;;;5057366;28;20045;-69
2022/01/09 08:41:31;;;;;;;13.23;2.28;;;;;;;;;;5055548;28;20045;-68
2022/01/09 08:43:58;;;;;;;30.13;4.75;;;;;;;;;;5056956;28;20041;-68
2022/01/09 08:46:23;;;;;;;25.80;5.45;;;;;;;;;;5057846;28;20049;-68
2022/01/09 08:48:49;;;;;;;23.40;4.38;;;;;;;;;;5057555;28;20132;-68
2022/01/09 08:51:16;;;;;;;11.15;1.70;;;;;;;;;;5039510;28;20041;-68
2022/01/09 08:53:50;;;;;;;11.82;1.98;;;;;;;;;;5056504;28;20106;-67
2022/01/09 08:56:16;;;;;;;17.77;2.38;;;;;;;;;;5057860;28;20462;-67
2022/01/09 08:58:42;;;;;;;15.18;2.80;;;;;;;;;;5059441;28;20052;-66
2022/01/09 09:01:08;;;;;;;10.75;2.08;;;;;;;;;;5057608;28;20556;-68
2022/01/09 09:03:36;;;;;;;20.73;3.00;;;;;;;;;;5056558;28;20383;-68
2022/01/09 09:06:02;;;;;;;9.75;2.50;;;;;;;;;;5057936;28;20131;-67
2022/01/09 09:08:28;;;;;;;18.20;2.55;;;;;;;;;;5059158;28;20068;-67
2022/01/09 09:10:54;;;;;;;15.75;2.80;;;;;;;;;;5057995;28;20045;-66
2022/01/09 09:13:20;;;;;;;10.93;2.50;;;;;;;;;;5057709;28;20047;-66
2022/01/09 09:15:46;;;;;;;14.85;2.20;;;;;;;;;;5053241;28;20084;-68
2022/01/09 09:18:12;;;;;;;10.82;1.65;;;;;;;;;;5041298;28;20090;-68
2022/01/09 09:20:38;;;;;;;26.08;3.45;;;;;;;;;;5019785;28;20111;-68
2022/01/09 09:23:04;;;;;;;16.17;2.45;;;;;;;;;;5038382;28;20046;-69
2022/01/09 09:25:30;;;;;;;15.68;2.35;;;;;;;;;;5037451;28;20535;-66
2022/01/09 09:27:56;;;;;;;8.85;1.83;;;;;;;;;;5037176;28;20491;-67
2022/01/09 09:30:22;;;;;;;12.60;1.70;;;;;;;;;;5042716;28;20049;-67
2022/01/09 09:32:48;;;;;;;28.27;5.75;;;;;;;;;;5056149;28;20053;-68
2022/01/09 09:35:14;;;;;;;14.70;1.77;;;;;;;;;;5058117;28;20049;-69
2022/01/09 09:37:40;;;;;;;21.00;2.97;;;;;;;;;;5056954;28;20050;-68
2022/01/09 09:40:07;;;;;;;46.05;7.13;;;;;;;;;;5057588;28;20057;-69
2022/01/09 09:42:33;;;;;;;15.05;2.38;;;;;;;;;;5058609;28;20052;-68
2022/01/09 09:45:01;;;;;;;12.13;1.75;;;;;;;;;;5074945;28;20048;-69
2022/01/09 09:47:27;;;;;;;13.60;1.90;;;;;;;;;;5072433;28;20048;-69
2022/01/09 09:49:53;;;;;;;11.65;2.70;;;;;;;;;;5058390;28;20029;-68
2022/01/09 09:52:19;;;;;;;94.80;14.65;;;;;;;;;;5056259;28;20059;-68
2022/01/09 09:54:46;;;;;;;13.13;2.40;;;;;;;;;;5076363;28;20048;-69
2022/01/09 09:57:12;;;;;;;9.60;1.80;;;;;;;;;;5076015;28;20055;-66
2022/01/09 09:59:39;;;;;;;15.88;2.47;;;;;;;;;;5074811;28;20057;-66
2022/01/09 10:02:12;;;;;;;16.67;2.30;;;;;;;;;;5073923;28;20138;-67
2022/01/09 10:04:56;;;;;;;26.13;3.25;;;;;;;;;;5046304;28;20065;-67
2022/01/09 10:07:23;;;;;;;13.55;3.22;;;;;;;;;;5057037;28;20041;-67
2022/01/09 10:09:56;;;;;;;19.70;4.32;;;;;;;;;;5057025;28;20388;-67
2022/01/09 10:12:27;;;;;;;13.13;2.30;;;;;;;;;;5057474;28;20041;-68
2022/01/09 10:14:53;;;;;;;11.55;2.05;;;;;;;;;;5058018;28;20132;-67
2022/01/09 10:17:20;;;;;;;10.45;1.67;;;;;;;;;;5055552;28;20079;-67
2022/01/09 10:19:49;;;;;;;10.20;1.95;;;;;;;;;;5055722;28;20059;-68
2022/01/09 10:22:34;;;;;;;9.32;1.52;;;;;;;;;;5054204;28;20049;-66
2022/01/09 10:25:18;;;;;;;12.80;1.90;;;;;;;;;;5063672;28;20044;-66
2022/01/09 10:27:45;;;;;;;14.85;2.55;;;;;;;;;;5055176;28;20406;-66
2022/01/09 10:30:11;;;;;;;10.45;2.00;;;;;;;;;;5055295;28;20044;-67
2022/01/09 10:32:38;;;;;;;21.73;3.95;;;;;;;;;;5055186;28;20084;-67
2022/01/09 10:35:07;;;;;;;11.43;2.00;;;;;;;;;;5037110;28;20055;-66
2022/01/09 10:37:33;;;;;;;;;;;;;;;;;;5054482;28;20471;-66
2022/01/09 10:40:00;;;;;;;10.68;1.65;;;;;;;;;;5055560;28;20026;-66
2022/01/09 10:42:26;;;;;;;13.80;2.00;;;;;;;;;;5055329;28;20148;-66
2022/01/09 10:44:52;;;;;;;7.32;1.38;;;;;;;;;;5053536;28;20124;-66
2022/01/09 10:47:18;;;;;;;8.63;1.92;;;;;;;;;;5038912;28;20084;-66
2022/01/09 10:49:47;;;;;;;10.85;1.58;;;;;;;;;;5056078;28;20069;-66
2022/01/09 10:52:13;;;;;;;9.90;2.10;;;;;;;;;;5054157;28;20443;-66
2022/01/09 10:54:41;;;;;;;8.77;2.00;;;;;;;;;;5056216;28;20052;-66
2022/01/09 10:57:14;;;;;;;13.27;1.90;;;;;;;;;;5054522;28;20498;-67
2022/01/09 10:59:40;;;;;;;10.10;1.85;;;;;;;;;;5055296;28;20049;-68
2022/01/09 11:02:06;;;;;;;11.75;1.80;;;;;;;;;;5055159;28;20391;-68
2022/01/09 11:04:33;;;;;;;20.08;2.67;;;;;;;;;;5070934;28;20056;-68
2022/01/09 11:07:00;;;;;;;41.70;7.85;;;;;;;;;;5072079;28;20044;-67
2022/01/09 11:09:28;;;;;;;129.10;23.40;;;;;;;;;;5072786;28;20060;-66
2022/01/09 11:11:55;;;;;;;11.00;1.98;;;;;;;;;;5073404;28;20041;-66
2022/01/09 11:14:23;;;;;;;12.52;1.80;;;;;;;;;;5074508;28;20076;-67
2022/01/09 11:16:54;;;;;;;11.27;2.30;;;;;;;;;;5063679;28;20396;-68
2022/01/09 11:19:22;;;;;;;10.48;2.00;;;;;;;;;;5054660;28;20510;-68
2022/01/09 11:21:54;;;;;;;11.47;2.00;;;;;;;;;;5054531;28;20045;-68
2022/01/09 11:24:32;;;;;;;8.18;1.50;;;;;;;;;;5055441;28;20392;-68
2022/01/09 11:27:01;;;;;;;19.65;3.67;;;;;;;;;;5055327;28;20075;-69
2022/01/09 11:29:41;;;;;;;10.63;1.80;;;;;;;;;;5056518;28;20487;-68
2022/01/09 11:32:14;;;;;;;7.43;1.75;;;;;;;;;;5055211;28;20072;-68
2022/01/09 11:34:51;;;;;;;10.30;1.77;;;;;;;;;;5054289;28;20394;-68
2022/01/09 11:37:17;;;;;;;10.82;1.63;;;;;;;;;;5036195;28;20052;-68
2022/01/09 11:39:43;;;;;;;14.30;2.20;;;;;;;;;;5053227;28;20084;-69
2022/01/09 11:42:14;;;;;;;10.02;1.75;;;;;;;;;;5053579;28;20045;-68
2022/01/09 11:44:46;;;;;;;21.90;4.13;;;;;;;;;;5052666;28;20087;-68
2022/01/09 11:47:12;;;;;;;31.95;6.18;;;;;;;;;;5042085;28;20111;-68
2022/01/09 11:49:40;;;;;;;9.13;1.92;;;;;;;;;;5044569;28;20090;-69
2022/01/09 11:52:08;;;;;;;14.02;2.42;;;;;;;;;;5042481;28;20045;-68
2022/01/09 11:55:01;;;;;;;16.90;2.03;;;;;;;;;;5041456;28;20387;-68
2022/01/09 11:57:48;;;;;;;10.80;1.67;;;;;;;;;;5031889;28;20057;-68
2022/01/09 12:00:30;;;;;;;12.25;1.83;;;;;;;;;;5035789;28;20423;-66
2022/01/09 12:02:57;;;;;;;15.40;2.22;;;;;;;;;;5044054;28;20041;-67
2022/01/09 12:05:23;;;;;;;14.32;2.22;;;;;;;;;;5051276;28;20075;-66
2022/01/09 12:07:49;;;;;;;13.77;2.10;;;;;;;;;;5038907;28;20049;-67
2022/01/09 12:10:18;;;;;;;11.55;2.03;;;;;;;;;;5040075;28;20050;-66
2022/01/09 12:12:45;;;;;;;;;;;;;;;;;;5040996;28;20041;-66
2022/01/09 12:15:11;;;;;;;19.95;4.03;;;;;;;;;;5047343;28;19952;-67
2022/01/09 12:17:39;;;;;;;15.77;2.47;;;;;;;;;;5062712;28;20060;-66
2022/01/09 12:20:10;;;;;;;14.43;2.40;;;;;;;;;;5068438;28;20052;-65
2022/01/09 12:22:49;;;;;;;13.20;2.35;;;;;;;;;;5069470;28;20311;-66
2022/01/09 12:25:24;;;;;;;15.70;2.67;;;;;;;;;;5065968;28;20093;-66
2022/01/09 12:27:54;;;;;;;14.82;2.65;;;;;;;;;;5047182;28;20053;-66
2022/01/09 12:30:44;;;;;;;14.95;3.00;;;;;;;;;;5066611;28;20041;-66
2022/01/09 12:33:20;;;;;;;18.73;2.50;;;;;;;;;;5041340;28;20053;-66
2022/01/09 12:35:57;;;;;;;12.45;2.17;;;;;;;;;;5062881;28;20083;-67
2022/01/09 12:38:24;;;;;;;14.38;2.10;;;;;;;;;;5064759;28;20112;-66
2022/01/09 12:40:57;;;;;;;14.52;2.10;;;;;;;;;;5061471;28;20048;-66
2022/01/09 12:43:23;;;;;;;15.48;2.45;;;;;;;;;;5060338;28;20096;-65
2022/01/09 12:45:49;;;;;;;14.18;2.20;;;;;;;;;;5055031;28;20056;-65
2022/01/09 12:48:20;;;;;;;34.72;6.60;;;;;;;;;;5054096;28;20072;-65
2022/01/09 12:50:46;;;;;;;17.20;2.90;;;;;;;;;;5046060;28;20051;-66
2022/01/09 12:53:15;;;;;;;15.63;2.33;;;;;;;;;;5058265;28;20072;-66
2022/01/09 12:55:41;;;;;;;;;;;;;;;;;;5061179;28;20091;-67
2022/01/09 12:58:07;;;;;;;18.83;3.20;;;;;;;;;;5059439;28;20275;-67
2022/01/09 13:00:33;;;;;;;13.93;2.00;;;;;;;;;;5058971;28;20087;-66
2022/01/09 13:02:59;;;;;;;13.65;3.00;;;;;;;;;;5058867;28;20048;-66
2022/01/09 13:05:26;;;;;;;13.13;2.47;;;;;;;;;;5061949;28;20124;-67
2022/01/09 13:07:56;;;;;;;18.13;4.00;;;;;;;;;;5061592;28;20128;-67
2022/01/09 13:10:27;;;;;;;19.55;3.05;;;;;;;;;;5058608;28;20135;-67
2022/01/09 13:13:03;;;;;;;41.25;7.57;;;;;;;;;;5036398;28;20045;-66
2022/01/09 13:15:33;;;;;;;22.52;2.95;;;;;;;;;;5052804;28;20072;-66
2022/01/09 13:17:59;;;;;;;15.35;2.72;;;;;;;;;;5054616;28;20041;-66
2022/01/09 13:20:25;;;;;;;15.63;2.47;;;;;;;;;;5057319;28;20053;-67
2022/01/09 13:23:04;;;;;;;13.57;2.78;;;;;;;;;;5052773;28;20091;-66
2022/01/09 13:25:40;;;;;;;13.05;2.38;;;;;;;;;;5035066;28;20071;-67
2022/01/09 13:28:07;;;;;;;14.55;2.45;;;;;;;;;;5053221;28;20147;-67
2022/01/09 13:30:33;;;;;;;14.55;1.90;;;;;;;;;;5055499;28;20078;-67
2022/01/09 13:33:02;;;;;;;16.05;2.40;;;;;;;;;;5055397;28;20140;-67
2022/01/09 13:35:28;;;;;;;10.75;2.28;;;;;;;;;;5056494;28;20080;-67
2022/01/09 13:37:58;;;;;;;16.83;2.40;;;;;;;;;;5056447;28;20483;-66
2022/01/09 13:40:24;;;;;;;11.35;2.22;;;;;;;;;;5056259;28;20136;-66
2022/01/09 13:42:50;;;;;;;14.43;2.22;;;;;;;;;;5055156;28;20048;-67
2022/01/09 13:45:21;;;;;;;9.43;2.13;;;;;;;;;;5038958;28;20084;-67
2022/01/09 13:47:48;;;;;;;10.43;1.50;;;;;;;;;;5060731;28;20049;-66
2022/01/09 13:50:30;;;;;;;6.40;1.58;;;;;;;;;;5056528;28;20442;-65
2022/01/09 13:53:05;;;;;;;10.57;1.60;;;;;;;;;;5038990;28;20052;-65
2022/01/09 13:55:33;;;;;;;4.40;1.10;;;;;;;;;;5054719;28;20041;-66
2022/01/09 13:58:03;;;;;;;15.25;2.38;;;;;;;;;;5056207;28;20055;-66
2022/01/09 14:00:33;;;;;;;15.32;1.90;;;;;;;;;;5055952;28;20044;-66
2022/01/09 14:03:00;;;;;;;17.48;1.90;;;;;;;;;;5056011;28;20171;-66
2022/01/09 14:05:27;;;;;;;19.67;2.95;;;;;;;;;;5055071;28;20045;-66
2022/01/09 14:07:57;;;;;;;7.97;1.60;;;;;;;;;;5054695;28;20052;-66
2022/01/09 14:10:38;;;;;;;12.55;2.25;;;;;;;;;;5054689;28;20053;-65
2022/01/09 14:13:30;;;;;;;9.95;1.63;;;;;;;;;;5055474;28;20048;-66
2022/01/09 14:16:08;;;;;;;7.63;1.65;;;;;;;;;;5054818;28;20399;-66
2022/01/09 14:18:35;;;;;;;9.27;1.40;;;;;;;;;;5038006;28;20044;-66
2022/01/09 14:21:03;;;;;;;12.63;2.08;;;;;;;;;;5055820;28;20049;-66
2022/01/09 14:23:34;;;;;;;25.88;2.28;;;;;;;;;;5037714;28;20049;-66
2022/01/09 14:26:07;;;;;;;5.15;1.10;;;;;;;;;;5054954;28;20045;-66
2022/01/09 14:28:33;;;;;;;4.60;0.80;;;;;;;;;;5054310;28;20052;-66
2022/01/09 14:31:06;;;;;;;20.70;4.18;;;;;;;;;;5053896;28;20388;-66
2022/01/09 14:33:32;;;;;;;5.88;1.30;;;;;;;;;;5055748;28;20457;-67
2022/01/09 14:36:06;;;;;;;5.70;1.15;;;;;;;;;;5054451;28;20480;-66
2022/01/09 14:38:33;;;;;;;19.52;2.78;;;;;;;;;;5037489;28;20040;-67